Time;durP1;ratioP1;P1;durP2;ratioP2;P2;SDS_P1;SDS_P2;PMS_P1;PMS_P2;Temp;Humidity;BMP_temperature;BMP_pressure;BME280_temperature;BME280_humidity;BME280_pressure;Samples;Min_cycle;Max_cycle;Signal;HPM_P1;HPM_P2
2023/12/29 00:00:14;;;;;;;118.32;85.15;;;;;;;;;;5047626;28;20048;-72
2023/12/29 00:03:19;;;;;;;136.73;88.60;;;;;;;;;;5047711;28;20044;-73
2023/12/29 00:06:23;;;;;;;135.55;90.10;;;;;;;;;;5047655;28;20055;-73
2023/12/29 00:09:27;;;;;;;132.20;89.07;;;;;;;;;;5095305;28;20055;-72
2023/12/29 00:12:31;;;;;;;133.20;90.43;;;;;;;;;;5047376;28;20056;-73
2023/12/29 00:15:36;;;;;;;135.45;93.68;;;;;;;;;;5047536;28;20500;-73
2023/12/29 00:18:40;;;;;;;129.07;87.50;;;;;;;;;;5047276;28;20056;-72
2023/12/29 00:21:44;;;;;;;127.47;89.13;;;;;;;;;;5047368;28;20044;-73
2023/12/29 00:24:49;;;;;;;118.70;80.93;;;;;;;;;;5047310;28;20036;-73
2023/12/29 00:27:53;;;;;;;127.70;84.50;;;;;;;;;;5047495;28;20048;-73
2023/12/29 00:30:57;;;;;;;122.00;82.88;;;;;;;;;;5094717;28;20221;-73
2023/12/29 00:34:03;;;;;;;123.50;83.45;;;;;;;;;;5047239;28;20056;-73
2023/12/29 00:37:08;;;;;;;119.68;83.38;;;;;;;;;;5047172;28;20048;-73
2023/12/29 00:40:12;;;;;;;128.23;82.63;;;;;;;;;;5049717;28;20052;-73
2023/12/29 00:43:17;;;;;;;122.53;81.95;;;;;;;;;;5098250;27;20048;-73
2023/12/29 00:46:21;;;;;;;121.25;82.40;;;;;;;;;;5098092;27;20052;-73
2023/12/29 00:49:25;;;;;;;123.35;85.15;;;;;;;;;;5050190;28;20036;-73
2023/12/29 00:52:30;;;;;;;124.22;83.65;;;;;;;;;;5050281;28;20056;-73
2023/12/29 00:55:34;;;;;;;125.63;85.55;;;;;;;;;;5050617;28;20381;-73
2023/12/29 00:58:38;;;;;;;125.40;88.78;;;;;;;;;;5097421;27;20052;-73
2023/12/29 01:01:44;;;;;;;135.10;90.38;;;;;;;;;;5050506;28;20416;-73
2023/12/29 01:04:48;;;;;;;129.35;93.85;;;;;;;;;;5050605;28;20388;-73
2023/12/29 01:07:53;;;;;;;135.05;94.65;;;;;;;;;;5050195;28;20048;-73
2023/12/29 01:10:57;;;;;;;137.38;95.38;;;;;;;;;;5097806;27;20052;-73
2023/12/29 01:14:02;;;;;;;133.35;94.50;;;;;;;;;;5050196;28;20053;-72
2023/12/29 01:17:06;;;;;;;132.73;91.03;;;;;;;;;;5049783;28;20044;-72
2023/12/29 01:20:11;;;;;;;126.00;90.30;;;;;;;;;;5049694;28;20044;-73
2023/12/29 01:23:15;;;;;;;125.15;90.28;;;;;;;;;;5049974;28;20499;-73
2023/12/29 01:26:19;;;;;;;131.52;91.28;;;;;;;;;;5086005;28;20046;-73
2023/12/29 01:29:23;;;;;;;127.05;89.15;;;;;;;;;;5097127;27;20040;-73
2023/12/29 01:32:29;;;;;;;128.68;89.70;;;;;;;;;;5097492;27;20052;-73
2023/12/29 01:35:33;;;;;;;126.53;88.50;;;;;;;;;;5097496;27;20036;-72
2023/12/29 01:38:38;;;;;;;128.55;86.55;;;12.50;99.90;;;;;;5050134;28;20056;-73
2023/12/29 01:41:43;;;;;;;124.10;84.78;;;;;;;;;;5097463;27;20047;-73
2023/12/29 01:44:52;;;;;;;121.50;84.53;;;12.80;99.90;;;;;;5049633;28;20259;-72
2023/12/29 01:47:56;;;;;;;118.20;84.75;;;;;;;;;;5049479;28;20044;-73
2023/12/29 01:51:00;;;;;;;116.13;83.88;;;;;;;;;;5048778;28;20507;-72
2023/12/29 01:54:05;;;;;;;116.25;82.22;;;;;;;;;;5049502;28;20056;-73
2023/12/29 01:57:10;;;;;;;124.90;84.68;;;;;;;;;;5049231;28;20054;-73
2023/12/29 02:00:16;;;;;;;122.82;84.72;;;12.10;99.90;;;;;;5097150;27;20048;-73
2023/12/29 02:03:21;;;;;;;125.38;85.78;;;;;;;;;;5096665;27;20048;-73
2023/12/29 02:06:25;;;;;;;123.32;87.90;;;;;;;;;;5097186;27;20503;-73
2023/12/29 02:09:30;;;;;;;121.40;86.82;;;;;;;;;;5048991;28;20036;-73
2023/12/29 02:12:38;;;;;;;127.28;90.28;;;12.60;99.90;;;;;;5096902;27;20072;-73
2023/12/29 02:15:42;;;;;;;122.68;89.43;;;;;;;;;;5094643;27;20495;-72
2023/12/29 02:18:47;;;;;;;123.68;91.90;;;12.50;99.90;;;;;;5096729;27;20060;-73
2023/12/29 02:21:52;;;;;;;133.18;93.22;;;;;;;;;;5096616;27;20063;-72
2023/12/29 02:24:56;;;;;;;133.10;96.07;;;;;;;;;;5096609;27;20048;-72
2023/12/29 02:28:11;;;;;;;143.98;100.97;;;12.40;99.90;;;;;;5048353;28;20057;-72
2023/12/29 02:31:19;;;;;;;137.40;95.60;;;12.40;99.90;;;;;;5083709;28;20048;-72
2023/12/29 02:34:24;;;;;;;136.57;99.00;;;;;;;;;;5095570;27;20413;-73
2023/12/29 02:37:29;;;;;;;145.65;100.20;;;;;;;;;;5048093;28;20040;-73
2023/12/29 02:40:33;;;;;;;141.63;97.80;;;;;;;;;;5095714;27;20048;-72
2023/12/29 02:43:37;;;;;;;136.95;98.38;;;;;;;;;;5048419;28;20048;-73
2023/12/29 02:46:42;;;;;;;135.98;96.38;;;;;;;;;;5048257;28;20042;-73
2023/12/29 02:49:46;;;;;;;134.73;97.47;;;;;;;;;;5048301;28;20044;-73
2023/12/29 02:52:51;;;;;;;142.45;98.95;;;;;;;;;;5048054;28;20123;-72
2023/12/29 02:55:55;;;;;;;134.57;95.55;;;;;;;;;;5048289;28;20599;-73
2023/12/29 02:59:00;;;;;;;134.73;94.95;;;;;;;;;;5095389;27;20039;-73
2023/12/29 03:02:04;;;;;;;121.60;90.78;;;;;;;;;;5094754;27;20503;-73
2023/12/29 03:05:08;;;;;;;131.02;90.03;;;;;;;;;;5095396;27;20048;-73
2023/12/29 03:08:13;;;;;;;134.57;92.00;;;;;;;;;;5047879;28;20048;-72
2023/12/29 03:11:17;;;;;;;125.35;90.47;;;;;;;;;;5047922;28;20567;-73
2023/12/29 03:14:21;;;;;;;134.73;93.10;;;;;;;;;;5047903;28;20052;-72
2023/12/29 03:17:26;;;;;;;121.18;88.53;;;;;;;;;;5095007;27;20067;-72
2023/12/29 03:20:30;;;;;;;120.70;87.75;;;;;;;;;;5047488;28;20048;-73
2023/12/29 03:23:35;;;;;;;122.63;88.28;;;;;;;;;;5094610;27;20036;-72
2023/12/29 03:26:40;;;;;;;125.20;88.55;;;;;;;;;;5083647;28;20404;-73
2023/12/29 03:29:44;;;;;;;121.75;90.03;;;;;;;;;;5095266;28;20500;-73
2023/12/29 03:32:49;;;;;;;124.68;89.72;;;;;;;;;;5047353;28;20071;-73
2023/12/29 03:35:53;;;;;;;124.88;90.05;;;;;;;;;;5083513;28;20048;-73
2023/12/29 03:38:58;;;;;;;127.63;93.20;;;;;;;;;;5047610;28;20052;-73
2023/12/29 03:42:02;;;;;;;133.48;92.00;;;12.10;99.90;;;;;;5047441;28;20040;-73
2023/12/29 03:45:07;;;;;;;132.85;88.47;;;;;;;;;;5047700;28;20530;-72
2023/12/29 03:48:12;;;;;;;117.20;87.03;;;;;;;;;;5047529;28;20048;-73
2023/12/29 03:51:16;;;;;;;129.25;91.00;;;;;;;;;;5047333;28;20048;-73
2023/12/29 03:54:21;;;;;;;117.63;88.00;;;;;;;;;;5094975;28;20405;-73
2023/12/29 03:57:26;;;;;;;120.35;87.95;;;;;;;;;;5047333;28;20060;-73
2023/12/29 04:00:30;;;;;;;117.25;84.35;;;;;;;;;;5094760;28;20437;-72
2023/12/29 04:03:34;;;;;;;123.43;86.55;;;;;;;;;;5094592;28;20036;-73
2023/12/29 04:06:39;;;;;;;122.70;86.72;;;;;;;;;;5082726;28;20068;-73
2023/12/29 04:09:43;;;;;;;123.18;87.72;;;;;;;;;;5046801;28;20040;-73
2023/12/29 04:12:48;;;;;;;120.10;85.85;;;;;;;;;;5095074;28;20561;-73
2023/12/29 04:15:52;;;;;;;116.55;85.35;;;;;;;;;;5097983;27;20060;-73
2023/12/29 04:18:57;;;;;;;123.07;89.35;;;;;;;;;;5050350;28;20072;-73
2023/12/29 04:22:01;;;;;;;122.05;87.78;;;;;;;;;;5050538;28;20623;-73
2023/12/29 04:25:05;;;;;;;126.03;88.82;;;12.20;99.90;;;;;;5050515;28;20072;-73
2023/12/29 04:28:10;;;;;;;125.32;90.57;;;;;;;;;;5050242;28;20048;-73
2023/12/29 04:31:14;;;;;;;118.40;86.32;;;;;;;;;;5050279;28;20041;-73
2023/12/29 04:34:18;;;;;;;120.63;86.97;;;;;;;;;;5098289;27;20056;-73
2023/12/29 04:37:22;;;;;;;124.38;88.43;;;;;;;;;;5097957;27;20040;-73
2023/12/29 04:40:27;;;;;;;118.03;89.15;;;;;;;;;;5050281;28;20044;-73
2023/12/29 04:43:31;;;;;;;125.25;89.22;;;;;;;;;;5098089;27;20040;-73
2023/12/29 04:46:35;;;;;;;127.65;88.80;;;;;;;;;;5050182;28;20492;-73
2023/12/29 04:49:39;;;;;;;117.72;86.90;;;;;;;;;;5050122;28;20044;-72
2023/12/29 04:52:44;;;;;;;123.75;88.03;;;;;;;;;;5049633;28;20052;-72
2023/12/29 04:55:48;;;;;;;123.70;90.05;;;;;;;;;;5049974;28;20052;-73
2023/12/29 04:58:53;;;;;;;124.55;88.15;;;;;;;;;;5050009;28;20068;-73
2023/12/29 05:01:57;;;;;;;130.02;91.25;;;;;;;;;;5049949;28;20040;-72
2023/12/29 05:05:01;;;;;;;125.13;89.50;;;;;;;;;;5049870;28;20047;-73
2023/12/29 05:08:06;;;;;;;123.93;89.57;;;;;;;;;;5049753;28;20040;-73
2023/12/29 05:11:10;;;;;;;124.65;87.78;;;;;;;;;;5049969;28;20052;-73
2023/12/29 05:14:15;;;;;;;120.85;85.85;;;;;;;;;;5049804;28;20052;-73
2023/12/29 05:17:19;;;;;;;119.05;82.75;;;;;;;;;;5049652;28;20052;-73
2023/12/29 05:20:23;;;;;;;113.85;81.70;;;;;;;;;;5049906;28;20060;-73
2023/12/29 05:23:28;;;;;;;117.88;82.00;;;;;;;;;;5050340;28;20040;-73
2023/12/29 05:26:32;;;;;;;108.43;79.05;;;;;;;;;;5050094;28;20068;-72
2023/12/29 05:29:37;;;;;;;111.13;79.57;;;;;;;;;;5050139;28;20072;-73
2023/12/29 05:32:41;;;;;;;105.90;78.35;;;;;;;;;;5049808;28;20412;-72
2023/12/29 05:35:45;;;;;;;102.43;78.88;;;;;;;;;;5049963;28;20511;-73
2023/12/29 05:38:49;;;;;;;114.63;77.65;;;;;;;;;;5049582;28;20040;-73
2023/12/29 05:41:54;;;;;;;108.10;77.57;;;;;;;;;;5049788;28;20064;-72
2023/12/29 05:44:58;;;;;;;107.07;78.70;;;;;;;;;;5097661;27;20040;-73
2023/12/29 05:48:02;;;;;;;113.32;78.03;;;;;;;;;;5049608;28;20044;-73
2023/12/29 05:51:10;;;;;;;99.47;72.15;;;12.30;99.90;;;;;;5049692;28;20036;-73
2023/12/29 05:54:15;;;;;;;96.38;68.25;;;;;;;;;;5049186;28;20052;-73
2023/12/29 05:57:19;;;;;;;108.65;71.05;;;;;;;;;;5049432;28;20057;-73
2023/12/29 06:00:23;;;;;;;99.65;70.65;;;;;;;;;;5049424;28;20052;-73
2023/12/29 06:03:28;;;;;;;90.45;66.03;;;;;;;;;;5096598;27;20044;-73
2023/12/29 06:06:32;;;;;;;92.25;61.45;;;;;;;;;;5096908;27;20044;-73
2023/12/29 06:09:37;;;;;;;97.18;65.60;;;;;;;;;;5049040;28;20040;-72
2023/12/29 06:12:41;;;;;;;97.55;65.38;;;;;;;;;;5048855;28;20047;-73
2023/12/29 06:15:45;;;;;;;85.88;58.53;;;;;;;;;;5049125;28;20047;-72
2023/12/29 06:18:50;;;;;;;86.90;58.67;;;;;;;;;;5049036;28;20515;-73
2023/12/29 06:21:57;;;;;;;86.93;59.75;;;;;;;;;;5094291;27;20059;-73
2023/12/29 06:25:01;;;;;;;86.03;60.03;;;;;;;;;;5048970;28;20056;-73
2023/12/29 06:28:09;;;;;;;81.22;57.42;;;;;;;;;;5048814;28;20052;-73
2023/12/29 06:31:13;;;;;;;88.28;58.20;;;;;;;;;;5048819;28;20051;-73
2023/12/29 06:34:17;;;;;;;80.60;56.90;;;;;;;;;;5096400;27;20419;-73
2023/12/29 06:37:22;;;;;;;75.18;53.38;;;;;;;;;;5047087;28;20040;-73
2023/12/29 06:40:26;;;;;;;77.10;53.83;;;;;;;;;;5096152;27;20538;-68
2023/12/29 06:43:31;;;;;;;81.43;52.63;;;;;;;;;;5096063;27;20404;-69
2023/12/29 06:46:37;;;;;;;74.32;51.05;;;12.30;99.90;;;;;;5048532;28;20052;-68
2023/12/29 06:49:42;;;;;;;80.10;48.35;;;;;;;;;;5048497;28;20052;-68
2023/12/29 06:52:46;;;;;;;92.43;49.28;;;;;;;;;;5048189;28;20067;-68
2023/12/29 06:55:50;;;;;;;73.32;48.00;;;;;;;;;;5048552;28;20071;-68
2023/12/29 06:58:55;;;;;;;65.68;45.35;;;;;;;;;;5048249;28;20048;-67
2023/12/29 07:01:59;;;;;;;66.95;46.40;;;;;;;;;;5047784;28;20063;-68
2023/12/29 07:05:04;;;;;;;76.88;47.85;;;;;;;;;;5047807;28;20476;-68
2023/12/29 07:08:08;;;;;;;82.03;47.63;;;;;;;;;;5047849;28;20048;-68
2023/12/29 07:11:12;;;;;;;75.00;45.65;;;;;;;;;;5047107;28;20400;-69
2023/12/29 07:14:17;;;;;;;67.15;42.38;;;;;;;;;;5047869;28;20426;-70
2023/12/29 07:17:21;;;;;;;69.20;41.70;;;;;;;;;;5047813;28;20052;-69
2023/12/29 07:20:25;;;;;;;63.50;39.90;;;;;;;;;;5047952;28;20044;-69
2023/12/29 07:23:30;;;;;;;63.53;39.90;;;;;;;;;;5048050;28;20388;-68
2023/12/29 07:26:34;;;;;;;64.97;41.28;;;;;;;;;;5047571;28;20044;-68
2023/12/29 07:29:38;;;;;;;62.75;40.50;;;;;;;;;;5047626;28;20048;-68
2023/12/29 07:32:42;;;;;;;65.72;42.17;;;;;;;;;;5047666;28;20068;-68
2023/12/29 07:35:47;;;;;;;67.65;41.42;;;;;;;;;;5047852;28;20109;-68
2023/12/29 07:38:51;;;;;;;60.90;40.38;;;;;;;;;;5047917;28;20036;-69
2023/12/29 07:41:55;;;;;;;62.85;39.42;;;;;;;;;;5047594;28;20054;-68
2023/12/29 07:45:02;;;;;;;66.35;39.15;;;;;;;;;;5083545;28;20047;-68
2023/12/29 07:48:07;;;;;;;63.17;39.88;;;;;;;;;;5049128;28;20500;-69
2023/12/29 07:51:13;;;;;;;56.28;36.65;;;;;;;;;;5050954;28;20495;-69
2023/12/29 07:54:17;;;;;;;49.33;34.22;;;;;;;;;;5051025;28;20416;-68
2023/12/29 07:57:21;;;;;;;45.78;31.80;;;;;;;;;;5051199;28;20051;-68
2023/12/29 08:00:26;;;;;;;51.65;32.88;;;;;;;;;;5051288;28;20048;-68
2023/12/29 08:03:31;;;;;;;47.15;30.33;;;;;;;;;;5050778;28;20044;-67
2023/12/29 08:06:38;;;;;;;46.80;29.98;;;12.80;99.90;;;;;;5051075;28;20052;-67
2023/12/29 08:09:42;;;;;;;47.15;29.77;;;;;;;;;;5050832;28;20043;-67
2023/12/29 08:12:46;;;;;;;39.75;27.67;;;;;;;;;;5050653;28;20056;-67
2023/12/29 08:15:50;;;;;;;45.38;27.27;;;;;;;;;;5050824;28;20504;-68
2023/12/29 08:18:55;;;;;;;50.22;29.77;;;;;;;;;;5050883;28;20060;-68
2023/12/29 08:21:59;;;;;;;44.22;28.70;;;;;;;;;;5050504;28;20051;-67
2023/12/29 08:25:05;;;;;;;45.55;28.25;;;;;;;;;;5050918;28;20040;-68
2023/12/29 08:28:09;;;;;;;39.85;27.92;;;;;;;;;;5050375;28;20043;-69
2023/12/29 08:31:13;;;;;;;47.85;29.33;;;;;;;;;;5050452;28;20056;-68
2023/12/29 08:34:17;;;;;;;50.55;29.73;;;;;;;;;;5050129;28;20555;-68
2023/12/29 08:37:22;;;;;;;54.80;30.23;;;;;;;;;;5050410;28;20048;-67
2023/12/29 08:40:26;;;;;;;43.92;28.20;;;;;;;;;;5050137;28;20044;-67
2023/12/29 08:43:30;;;;;;;47.90;27.33;;;;;;;;;;5050155;28;20412;-67
2023/12/29 08:46:34;;;;;;;42.65;26.17;;;;;;;;;;5050251;28;20059;-67
2023/12/29 08:49:40;;;;;;;48.63;27.73;;;;;;;;;;5049831;28;20036;-67
2023/12/29 08:52:45;;;;;;;40.97;26.40;;;;;;;;;;5049869;28;20503;-67
2023/12/29 08:55:49;;;;;;;45.80;27.23;;;;;;;;;;5098143;27;20055;-66
2023/12/29 08:58:53;;;;;;;43.70;28.05;;;;;;;;;;5049198;28;20495;-67
2023/12/29 09:01:58;;;;;;;39.90;25.77;;;;;;;;;;5050288;28;20052;-68
2023/12/29 09:05:02;;;;;;;40.08;23.92;;;;;;;;;;5050158;28;20044;-67
2023/12/29 09:08:07;;;;;;;45.58;27.98;;;;;;;;;;5097392;27;20063;-67
2023/12/29 09:11:12;;;;;;;38.63;25.73;;;;;;;;;;5050035;28;20044;-67
2023/12/29 09:14:16;;;;;;;51.90;29.20;;;;;;;;;;5049871;28;20052;-67
2023/12/29 09:17:20;;;;;;;49.45;31.00;;;;;;;;;;5049539;28;20052;-66
2023/12/29 09:20:25;;;;;;;41.65;27.85;;;;;;;;;;5049848;28;20495;-67
2023/12/29 09:23:29;;;;;;;45.53;28.38;;;;;;;;;;5049439;28;20044;-67
2023/12/29 09:26:33;;;;;;;43.00;27.92;;;;;;;;;;5049340;28;20047;-67
2023/12/29 09:29:37;;;;;;;47.70;31.13;;;;;;;;;;5097006;27;20052;-67
2023/12/29 09:32:42;;;;;;;49.53;31.48;;;;;;;;;;5049078;28;20052;-67
2023/12/29 09:35:46;;;;;;;37.72;27.40;;;;;;;;;;5049309;28;20044;-67
2023/12/29 09:38:51;;;;;;;38.75;25.80;;;;;;;;;;5049188;28;20553;-68
2023/12/29 09:42:00;;;;;;;45.50;29.23;;;12.10;99.90;;;;;;5049357;28;20048;-68
2023/12/29 09:45:08;;;;;;;58.80;34.05;;;;;;;;;;5049384;28;20064;-68
2023/12/29 09:48:16;;;;;;;50.25;33.88;;;14.60;99.90;;;;;;5048835;28;20492;-68
2023/12/29 09:51:23;;;;;;;53.33;33.35;;;;;;;;;;5049004;28;20048;-67
2023/12/29 09:54:27;;;;;;;42.97;29.05;;;;;;;;;;5048772;28;20063;-67
2023/12/29 09:57:33;;;;;;;40.40;28.77;;;15.60;99.90;;;;;;5048781;28;20496;-67
2023/12/29 10:00:38;;;;;;;38.47;28.35;;;;;;;;;;5048910;28;20048;-66
2023/12/29 10:03:42;;;;;;;46.00;30.13;;;;;;;;;;5050261;28;20032;-67
2023/12/29 10:06:47;;;;;;;59.15;34.22;;;;;;;;;;5048939;28;20048;-67
2023/12/29 10:09:53;;;;;;;53.47;34.42;;;;;;;;;;5048793;28;20040;-69
2023/12/29 10:12:59;;;;;;;54.33;32.28;;;15.20;99.90;;;;;;5048317;28;20056;-68
2023/12/29 10:16:09;;;;;;;60.97;35.30;;;;;;;;;;5046768;28;20064;-67
2023/12/29 10:19:13;;;;;;;43.33;30.33;;;;;;;;;;5047578;28;20040;-68
2023/12/29 10:22:39;;;;;;;49.90;31.23;;;14.90;99.20;;;;;;5048254;28;20048;-68
2023/12/29 10:25:46;;;;;;;41.33;28.70;;;;;;;;;;5047911;28;20121;-67
2023/12/29 10:28:51;;;;;;;43.60;26.95;;;;;;;;;;5048396;28;20048;-67
2023/12/29 10:31:57;;;;;;;40.03;26.80;;;;;;;;;;5048405;28;20048;-67
2023/12/29 10:35:13;;;;;;;43.38;26.85;;;18.90;96.20;;;;;;5095917;27;20055;-67
2023/12/29 10:38:17;;;;;;;21.23;15.60;;;;;;;;;;5048475;28;20044;-67
2023/12/29 10:41:23;;;;;;;24.80;14.68;;;;;;;;;;5048385;28;20499;-67
2023/12/29 10:44:27;;;;;;;18.25;11.38;;;;;;;;;;5048225;28;20052;-67
2023/12/29 10:47:32;;;;;;;18.77;9.00;;;;;;;;;;5048450;28;20419;-67
2023/12/29 10:50:45;;;;;;;14.55;8.95;;;17.10;91.50;;;;;;5048388;28;20048;-67
2023/12/29 10:53:56;;;;;;;16.95;8.65;;;20.10;92.10;;;;;;5048021;28;20059;-68
2023/12/29 10:57:02;;;;;;;17.27;8.15;;;;;;;;;;5048391;28;20052;-69
2023/12/29 11:00:07;;;;;;;11.55;8.10;;;;;;;;;;5048008;28;20396;-69
2023/12/29 11:03:18;;;;;;;16.83;8.35;;;;;;;;;;5048035;28;20052;-71
2023/12/29 11:06:22;;;;;;;13.05;7.03;;;;;;;;;;5048257;28;20037;-68
2023/12/29 11:09:31;;;;;;;12.93;6.10;;;18.50;90.10;;;;;;5047729;28;20507;-69
2023/12/29 11:12:36;;;;;;;11.35;5.55;;;;;;;;;;5047938;28;20052;-68
2023/12/29 11:15:45;;;;;;;10.52;5.30;;;16.70;89.20;;;;;;5048014;28;20053;-67
2023/12/29 11:18:51;;;;;;;9.38;5.18;;;;;;;;;;5047788;28;20369;-68
2023/12/29 11:21:56;;;;;;;10.10;4.70;;;18.00;90.30;;;;;;5047421;28;20481;-69
2023/12/29 11:25:01;;;;;;;12.32;5.47;;;;;;;;;;5047782;28;20048;-67
2023/12/29 11:28:13;;;;;;;16.13;7.03;;;17.90;90.00;;;;;;5047744;28;20385;-70
2023/12/29 11:31:18;;;;;;;9.82;5.90;;;;;;;;;;5095447;28;20048;-68
2023/12/29 11:34:25;;;;;;;8.25;5.45;;;;;;;;;;5047360;28;20049;-67
2023/12/29 11:37:47;;;;;;;14.77;6.05;;;18.00;89.90;;;;;;5047434;28;20029;-68
2023/12/29 11:41:23;;;;;;;17.98;8.05;;;17.90;90.50;;;;;;5047675;28;20052;-66
2023/12/29 11:44:33;;;;;;;12.80;4.53;;;;;;;;;;5047664;28;20056;-67
2023/12/29 11:47:38;;;;;;;10.43;4.15;;;;;;;;;;5047695;28;20044;-67
2023/12/29 11:50:43;;;;;;;8.63;4.63;;;;;;;;;;5047248;28;20481;-67
2023/12/29 11:53:47;;;;;;;10.88;4.43;;;;;;;;;;5046780;28;20044;-68
2023/12/29 11:56:53;;;;;;;10.32;4.13;;;18.10;90.60;;;;;;5047100;28;20496;-68
2023/12/29 11:59:58;;;;;;;7.63;4.28;;;;;;;;;;5046413;28;20060;-68
2023/12/29 12:03:13;;;;;;;10.63;7.55;;;;;;;;;;5047663;28;20361;-68
2023/12/29 12:06:36;;;;;;;10.82;5.20;;;;;;;;;;5047589;28;20045;-67
2023/12/29 12:09:41;;;;;;;22.42;6.28;;;;;;;;;;5047166;28;20045;-67
2023/12/29 12:12:45;;;;;;;12.10;5.25;;;17.80;90.10;;;;;;5047196;28;20404;-67
2023/12/29 12:15:50;;;;;;;24.20;6.22;;;;;;;;;;5047519;28;20052;-68
2023/12/29 12:18:54;;;;;;;15.45;5.70;;;;;;;;;;5047135;28;20133;-68
2023/12/29 12:22:00;;;;;;;9.77;5.63;;;;;;;;;;5047431;28;20053;-68
2023/12/29 12:25:04;;;;;;;11.43;5.35;;;;;;;;;;5094625;28;20037;-68
2023/12/29 12:28:10;;;;;;;8.55;4.47;;;17.70;89.80;;;;;;5047362;28;20044;-68
2023/12/29 12:31:14;;;;;;;11.52;4.93;;;;;;;;;;5047390;28;20048;-68
2023/12/29 12:34:18;;;;;;;10.73;4.47;;;;;;;;;;5096157;27;20056;-68
2023/12/29 12:37:24;;;;;;;7.90;4.45;;;;;;;;;;5050515;28;20037;-68
2023/12/29 12:40:28;;;;;;;6.78;4.20;;;;;;;;;;5050241;28;20037;-68
2023/12/29 12:43:34;;;;;;;9.40;5.60;;;;;;;;;;5050560;28;20045;-68
2023/12/29 12:46:41;;;;;;;16.65;7.65;;;;;;;;;;5097924;27;20460;-68
2023/12/29 12:49:45;;;;;;;11.02;5.60;;;;;;;;;;5050415;28;20045;-68
2023/12/29 12:52:49;;;;;;;16.45;5.88;;;;;;;;;;5050199;28;20041;-68
2023/12/29 12:55:54;;;;;;;9.85;5.88;;;;;;;;;;5050431;28;20053;-68
2023/12/29 12:58:59;;;;;;;12.73;5.82;;;;;;;;;;5050092;28;20037;-68
2023/12/29 13:02:05;;;;;;;10.48;5.50;;;;;;;;;;5050092;28;20280;-68
2023/12/29 13:05:11;;;;;;;8.95;5.30;;;;;;;;;;5050069;28;20393;-67
2023/12/29 13:08:15;;;;;;;8.77;4.90;;;;;;;;;;5097607;27;20029;-68
2023/12/29 13:11:24;;;;;;;10.38;4.40;;;17.90;90.50;;;;;;5050086;28;20373;-68
2023/12/29 13:14:29;;;;;;;19.65;6.53;;;;;;;;;;5049784;28;20044;-68
2023/12/29 13:17:33;;;;;;;14.05;6.35;;;;;;;;;;5049538;28;20045;-67
2023/12/29 13:20:47;;;;;;;9.00;5.13;;;17.20;90.60;;;;;;5049887;28;20188;-67
2023/12/29 13:23:51;;;;;;;11.85;5.63;;;;;;;;;;5049617;28;20540;-69
2023/12/29 13:27:01;;;;;;;10.90;5.35;;;17.30;91.00;;;;;;5049707;28;20037;-69
2023/12/29 13:30:06;;;;;;;12.87;5.93;;;;;;;;;;5049513;28;20048;-68
2023/12/29 13:33:19;;;;;;;9.48;5.20;;;;;;;;;;5049496;28;20033;-68
2023/12/29 13:36:37;;;;;;;15.02;4.82;;;;;;;;;;5049795;28;20049;-68
2023/12/29 13:39:51;;;;;;;9.55;4.63;;;17.00;91.30;;;;;;5049034;28;20053;-69
2023/12/29 13:43:01;;;;;;;10.23;4.22;;;18.50;91.70;;;;;;5047409;28;20047;-69
2023/12/29 13:46:06;;;;;;;7.13;4.00;;;;;;;;;;5095167;27;20048;-68
2023/12/29 13:49:10;;;;;;;8.38;4.38;;;;;;;;;;5049522;28;20037;-69
2023/12/29 13:52:16;;;;;;;10.18;4.05;;;;;;;;;;5049190;28;20040;-68
2023/12/29 13:55:23;;;;;;;10.32;5.50;;;;;;;;;;5049156;28;20045;-69
2023/12/29 13:58:27;;;;;;;18.60;6.22;;;;;;;;;;5097082;27;20495;-68
2023/12/29 14:01:38;;;;;;;11.43;4.43;;;;;;;;;;5096361;27;20048;-68
2023/12/29 14:04:43;;;;;;;10.02;4.82;;;;;;;;;;5049001;28;20044;-68
2023/12/29 14:07:54;;;;;;;11.95;4.90;;;;;;;;;;5096475;27;20041;-68
2023/12/29 14:10:58;;;;;;;10.00;5.68;;;;;;;;;;5049123;28;20037;-69
2023/12/29 14:14:03;;;;;;;9.45;4.13;;;;;;;;;;5049027;28;20033;-69
2023/12/29 14:17:09;;;;;;;13.57;4.93;;;;;;;;;;5048701;28;20040;-68
2023/12/29 14:20:33;;;;;;;16.40;6.85;;;;;;;;;;5048928;28;20033;-69
2023/12/29 14:23:38;;;;;;;9.77;5.38;;;;;;;;;;5048553;28;20048;-68
2023/12/29 14:26:46;;;;;;;9.95;4.70;;;;;;;;;;5048540;28;20049;-68
2023/12/29 14:29:51;;;;;;;9.02;5.07;;;;;;;;;;5047982;28;20037;-69
2023/12/29 14:32:55;;;;;;;14.45;5.47;;;;;;;;;;5048976;28;20037;-68
2023/12/29 14:35:59;;;;;;;20.83;6.60;;;;;;;;;;5048839;28;20041;-68
2023/12/29 14:39:04;;;;;;;10.35;5.78;;;;;;;;;;5048569;28;20381;-68
2023/12/29 14:42:08;;;;;;;17.05;6.22;;;;;;;;;;5048753;28;20040;-68
2023/12/29 14:45:13;;;;;;;15.80;6.60;;;;;;;;;;5048729;28;20036;-68
2023/12/29 14:48:18;;;;;;;15.50;6.22;;;;;;;;;;5048624;28;20038;-68
2023/12/29 14:51:22;;;;;;;12.48;5.25;;;;;;;;;;5048771;28;20045;-68
2023/12/29 14:54:27;;;;;;;19.25;6.15;;;;;;;;;;5048548;28;20531;-68
2023/12/29 14:57:31;;;;;;;15.07;5.15;;;;;;;;;;5047442;28;20041;-68
2023/12/29 15:00:35;;;;;;;13.15;6.45;;;;;;;;;;5048313;28;20041;-69
2023/12/29 15:03:40;;;;;;;14.27;6.68;;;;;;;;;;5048454;28;20045;-69
2023/12/29 15:06:44;;;;;;;15.55;7.03;;;;;;;;;;5048985;28;20514;-67
2023/12/29 15:09:48;;;;;;;15.77;7.20;;;;;;;;;;5048111;28;20033;-68
2023/12/29 15:12:52;;;;;;;14.68;6.70;;;;;;;;;;5048173;28;20057;-68
2023/12/29 15:15:59;;;;;;;16.27;7.25;;;16.10;93.60;;;;;;5048041;28;20432;-68
2023/12/29 15:19:03;;;;;;;20.98;7.75;;;;;;;;;;5047715;28;20523;-68
2023/12/29 15:22:07;;;;;;;25.88;7.97;;;;;;;;;;5047671;28;20042;-68
2023/12/29 15:25:12;;;;;;;16.88;7.95;;;;;;;;;;5048095;28;20037;-68
2023/12/29 15:28:17;;;;;;;19.80;8.63;;;;;;;;;;5047980;28;20033;-68
2023/12/29 15:31:21;;;;;;;24.17;9.30;;;;;;;;;;5047895;28;20056;-68
2023/12/29 15:34:26;;;;;;;30.50;9.93;;;;;;;;;;5047926;28;20496;-68
2023/12/29 15:37:30;;;;;;;33.53;9.02;;;;;;;;;;5047753;28;20052;-68
2023/12/29 15:40:35;;;;;;;30.48;8.60;;;;;;;;;;5047914;28;20033;-68
2023/12/29 15:43:39;;;;;;;18.42;8.48;;;;;;;;;;5047855;28;20037;-68
2023/12/29 15:46:43;;;;;;;19.60;8.65;;;;;;;;;;5047743;28;20164;-67
2023/12/29 15:49:48;;;;;;;25.23;8.32;;;;;;;;;;5047847;28;20044;-71
2023/12/29 15:52:52;;;;;;;27.10;8.70;;;;;;;;;;5047469;28;20068;-71
2023/12/29 15:55:58;;;;;;;31.02;8.25;;;;;;;;;;5047658;28;20044;-71
2023/12/29 15:59:03;;;;;;;21.17;8.55;;;;;;;;;;5047573;28;20041;-72
2023/12/29 16:02:09;;;;;;;27.92;10.05;;;;;;;;;;5047571;28;20041;-71
2023/12/29 16:05:14;;;;;;;38.28;11.02;;;;;;;;;;5047732;28;20396;-71
2023/12/29 16:08:18;;;;;;;23.25;9.48;;;;;;;;;;5047460;28;20055;-72
2023/12/29 16:11:27;;;;;;;24.45;9.77;;;;;;;;;;5098600;27;20056;-72
2023/12/29 16:14:31;;;;;;;22.10;10.02;;;;;;;;;;5050820;28;20514;-72
2023/12/29 16:17:37;;;;;;;32.70;10.80;;;;;;;;;;5050721;28;20057;-72
2023/12/29 16:20:41;;;;;;;30.20;12.35;;;;;;;;;;5050723;28;20048;-73
2023/12/29 16:23:45;;;;;;;25.67;10.07;;;;;;;;;;5050390;28;20040;-72
2023/12/29 16:26:50;;;;;;;25.98;10.07;;;;;;;;;;5050771;28;20117;-73
2023/12/29 16:29:54;;;;;;;24.58;10.10;;;;;;;;;;5050844;28;20507;-75
2023/12/29 16:32:58;;;;;;;30.70;11.48;;;;;;;;;;5051049;28;20051;-73
2023/12/29 16:36:12;;;;;;;29.15;11.32;;;;;;;;;;5050313;28;20048;-73
2023/12/29 16:39:16;;;;;;;31.95;13.50;;;;;;;;;;5050346;28;20044;-72
2023/12/29 16:42:21;;;;;;;32.70;11.68;;;;;;;;;;5050159;28;20040;-72
2023/12/29 16:45:26;;;;;;;36.60;13.48;;;;;;;;;;5050346;28;20048;-72
2023/12/29 16:48:30;;;;;;;36.63;13.55;;;;;;;;;;5098318;27;20056;-72
2023/12/29 16:51:34;;;;;;;41.25;14.15;;;;;;;;;;5050266;28;20040;-71
2023/12/29 16:54:38;;;;;;;36.33;16.63;;;;;;;;;;5050056;28;20048;-73
2023/12/29 16:57:43;;;;;;;28.00;13.50;;;;;;;;;;5050023;28;20044;-73
2023/12/29 17:00:48;;;;;;;28.77;14.82;;;;;;;;;;5050112;28;20044;-72
2023/12/29 17:03:52;;;;;;;31.90;14.57;;;;;;;;;;5050139;28;20504;-72
2023/12/29 17:06:56;;;;;;;32.20;14.27;;;;;;;;;;5050032;28;20040;-72
2023/12/29 17:10:01;;;;;;;33.85;14.45;;;;;;;;;;5097675;27;20044;-72
2023/12/29 17:13:05;;;;;;;28.52;13.55;;;;;;;;;;5049917;28;20499;-73
2023/12/29 17:16:09;;;;;;;29.30;12.20;;;;;;;;;;5049653;28;20044;-72
2023/12/29 17:19:14;;;;;;;28.40;12.10;;;;;;;;;;5049814;28;20044;-73
2023/12/29 17:22:18;;;;;;;35.15;12.35;;;;;;;;;;5049256;28;20056;-73
2023/12/29 17:25:22;;;;;;;24.20;12.10;;;;;;;;;;5097724;27;20052;-73
2023/12/29 17:28:27;;;;;;;28.65;14.90;;;;;;;;;;5097747;27;20055;-73
2023/12/29 17:31:31;;;;;;;27.17;13.50;;;;;;;;;;5049461;28;20044;-73
2023/12/29 17:34:36;;;;;;;37.03;15.95;;;;;;;;;;5049384;28;20068;-73
2023/12/29 17:37:40;;;;;;;32.53;16.45;;;;;;;;;;5049355;28;20052;-73
2023/12/29 17:40:44;;;;;;;31.08;15.70;;;;;;;;;;5049483;28;20411;-73